Austin, TX (78780)

6:46 AM CST on December 21, 2014 (GMT -0600)
Stratford Hills | Change Station
CLOSE
Current Station
Personal Weather Station
Location: Austin, TX
Elevation: 594 ft
Nearby Weather Stations

Elev 594 ft 30.29 °N, 97.79 °W | Updated 4 seconds ago

Overcast
Overcast
49.6 °F
Feels Like 50 °F
N
0.0
Wind Variable Wind from North
Gusts 0.0 mph

Today
High -- | Low -- °F
--% Chance of Precip.
Yesterday
High -- | Low -- °F
Precip. -- in
7:23 AM 5:35 PM
Waning Crescent, 0% visible
Pressure 30.11 in
Visibility 9.0 miles
Clouds Overcast 1900 ft
Windchill 50 °F
Dew Point 48 °F
Humidity 92%
Rainfall 0.00 in
Snow Depth Not available.
UV 0 out of 12
Pollen 9.30 out of 12
Air Quality Not available.
Flu Activity Not available.
METAR KATT 211151Z AUTO 12003KT 9SM OVC019 10/08 A3010 RMK AO2 SLP194 T01000078 10100 20100 58012

More Conditions Fewer Conditions

Pressure 30.11 in
Visibility 9.0 miles
Clouds Overcast 1900 ft
Windchill 50 °F
Dew Point 48 °F
Humidity 92%
Rainfall 0.00 in
Snow Depth Not available.
UV 0 out of 12
Pollen 9.30 out of 12
Air Quality Not available.
Flu Activity Not available.
METAR KATT 211151Z AUTO 12003KT 9SM OVC019 10/08 A3010 RMK AO2 SLP194 T01000078 10100 20100 58012

More Conditions Fewer Conditions

10-Day Weather Forecast

Almanac

Astronomy

Dec. 21, 2014 Rise Set
Actual Time
Civil Twilight
Nautical Twilight
Astronomical Twilight
Moon
Length of Visible Light
Length of Day
Tomorrow will be .
, % of the Moon is Illuminated

Today's Extremes

State Highs State Lows

Community

WunderPhotos

Upload Photos

1,779,372 photos uploaded!

WunderBlogs® & News

Nearby

Air Quality

  Air Quality AQ Index Pollutant
Not available.

Snow Depth

Station Depth Elevation

Earthquake Activity

City Distance Mag. Time & Date
Minimum magnitude displayed is 2.5.

Coastal Water Temperatures

Place Temperature

Nearby Weather Stations